Time;durP1;ratioP1;P1;durP2;ratioP2;P2;SDS_P1;SDS_P2;PMS_P1;PMS_P2;Temp;Humidity;BMP_temperature;BMP_pressure;BME280_temperature;BME280_humidity;BME280_pressure;Samples;Min_cycle;Max_cycle;Signal;HPM_P1;HPM_P2
2023/11/03 00:00:00;;;;;;;11.95;8.88;;;;;;;13.14;75.55;92587.03;517710;28;1433;-70
2023/11/03 00:00:15;;;;;;;11.35;8.40;;;;;;;13.14;75.59;92596.09;517686;28;864;-69
2023/11/03 00:00:31;;;;;;;10.90;7.73;;;;;;;13.14;75.58;92593.31;517780;28;889;-70
2023/11/03 00:00:47;;;;;;;11.35;7.80;;;;;;;13.14;75.70;92592.56;517868;28;872;-70
2023/11/03 00:01:05;;;;;;;11.35;8.40;;;;;;;13.14;75.50;92598.13;517621;28;788;-70
2023/11/03 00:01:20;;;;;;;12.52;8.77;;;;;;;13.12;75.67;92584.84;517661;28;916;-70
2023/11/03 00:01:42;;;;;;;13.10;8.20;;;;;;;13.12;75.71;92590.41;517505;28;876;-70
2023/11/03 00:01:57;;;;;;;14.68;8.65;;;;;;;13.12;75.68;92600.75;515351;28;1437;-70
2023/11/03 00:02:13;;;;;;;10.63;8.07;;;;;;;13.12;75.85;92604.25;515742;28;785;-70
2023/11/03 00:02:30;;;;;;;10.87;7.93;;;;;;;13.12;75.66;92600.75;515681;28;820;-70
2023/11/03 00:02:48;;;;;;;12.73;8.43;;;;;;;13.13;75.70;92604.97;515487;28;967;-70
2023/11/03 00:03:06;;;;;;;11.98;8.00;;;;;;;13.14;75.71;92595.34;515496;28;947;-71
2023/11/03 00:03:21;;;;;;;10.15;7.60;;;;;;;13.13;75.50;92594.63;515436;28;870;-70
2023/11/03 00:03:37;;;;;;;10.65;7.65;;;;;;;13.11;75.55;92586.16;515741;28;974;-69
2023/11/03 00:03:53;;;;;;;12.63;7.80;;;;;;;13.10;75.72;92598.56;516992;28;844;-70
2023/11/03 00:04:09;;;;;;;11.55;7.63;;;;;;;13.09;75.66;92593.59;517672;28;940;-70
2023/11/03 00:04:24;;;;;;;10.80;7.93;;;;;;;13.10;75.74;92597.84;517588;28;843;-70
2023/11/03 00:04:39;;;;;;;14.07;8.77;;;;;;;13.10;75.80;92598.56;516882;28;1225;-70
2023/11/03 00:04:58;;;;;;;14.18;9.02;;;;;;;13.11;75.72;92602.78;515681;28;816;-70
2023/11/03 00:05:14;;;;;;;12.23;8.85;;;;;;;13.11;75.77;92602.78;515656;28;880;-70
2023/11/03 00:05:29;;;;;;;11.60;8.02;;;;;;;13.10;75.95;92601.34;515540;28;1181;-69
2023/11/03 00:05:45;;;;;;;11.27;7.55;;;;;;;13.11;75.69;92602.78;515617;28;860;-70
2023/11/03 00:06:01;;;;;;;10.70;7.63;;;;;;;13.11;75.67;92599.28;516001;28;837;-70
2023/11/03 00:06:16;;;;;;;11.23;8.10;;;;;;;13.12;75.74;92604.25;515647;28;1179;-70
2023/11/03 00:06:32;;;;;;;13.50;8.75;;;;;;;13.11;75.66;92594.47;515709;28;821;-70
2023/11/03 00:06:47;;;;;;;12.60;8.33;;;;;;;13.11;75.74;92602.06;515730;28;707;-68
2023/11/03 00:07:06;;;;;;;11.25;7.85;;;;;;;13.12;75.73;92600.75;515792;28;785;-70
2023/11/03 00:07:21;;;;;;;13.02;8.23;;;;;;;13.12;75.74;92601.50;515663;28;872;-70
2023/11/03 00:07:38;;;;;;;11.88;8.25;;;;;;;12.99;75.79;92588.06;515690;28;840;-69
2023/11/03 00:07:54;;;;;;;9.88;7.32;;;;;;;13.12;75.73;92601.50;515108;28;1032;-69
2023/11/03 00:08:09;;;;;;;10.63;7.32;;;;;;;13.10;75.57;92606.88;515932;28;1116;-70
2023/11/03 00:08:25;;;;;;;10.80;7.50;;;;;;;13.11;75.75;92610.38;515748;28;856;-70
2023/11/03 00:08:41;;;;;;;11.17;8.10;;;;;;;13.11;75.59;92613.88;515695;28;821;-70
2023/11/03 00:08:57;;;;;;;11.57;7.90;;;;;;;13.12;75.60;92604.25;515581;28;947;-69
2023/11/03 00:09:14;;;;;;;10.48;7.35;;;;;;;13.12;75.44;92604.25;515746;28;1086;-70
2023/11/03 00:09:35;;;;;;;9.98;7.65;;;;;;;13.11;75.66;92600.00;515578;28;813;-70
2023/11/03 00:09:51;;;;;;;9.93;7.85;;;;;;;13.10;75.57;92603.38;515722;28;923;-69
2023/11/03 00:10:09;;;;;;;11.00;7.78;;;;;;;13.08;75.73;92617.81;515553;28;793;-70
2023/11/03 00:10:24;;;;;;;12.63;7.90;;;;;;;13.08;75.89;92608.78;515504;28;939;-69
2023/11/03 00:10:40;;;;;;;12.50;7.90;;;;;;;13.06;75.80;92605.88;515680;28;812;-69
2023/11/03 00:10:55;;;;;;;10.77;7.90;;;;;;;13.05;75.80;92607.91;515860;28;853;-70
2023/11/03 00:11:11;;;;;;;10.17;7.60;;;;;;;13.06;75.87;92612.13;513417;28;904;-69
2023/11/03 00:11:27;;;;;;;10.20;7.60;;;;;;;13.03;75.96;92604.22;513463;28;911;-70
2023/11/03 00:11:43;;;;;;;10.68;7.88;;;;;;;12.86;75.82;92582.97;513623;28;1715;-69
2023/11/03 00:11:58;;;;;;;14.20;8.40;;;;;;;13.02;76.06;92609.03;513637;28;889;-68
2023/11/03 00:12:14;;;;;;;13.57;7.77;;;;;;;13.04;76.04;92614.72;513471;28;801;-69
2023/11/03 00:12:29;;;;;;;11.70;7.43;;;;;;;13.04;76.02;92614.72;513650;28;782;-69
2023/11/03 00:12:44;;;;;;;12.82;7.63;;;;;;;13.05;76.03;92618.25;513434;28;1105;-69
2023/11/03 00:13:02;;;;;;;11.70;7.73;;;;;;;13.04;75.94;92606.41;514135;28;845;-69
2023/11/03 00:13:17;;;;;;;12.55;8.23;;;;;;;13.01;76.13;92613.13;515615;28;927;-70
2023/11/03 00:13:34;;;;;;;13.70;8.48;;;;;;;13.01;76.07;92613.13;515538;28;774;-71
2023/11/03 00:13:50;;;;;;;12.75;8.52;;;;;;;13.03;76.22;92613.28;515582;28;1963;-71
2023/11/03 00:14:05;;;;;;;11.33;8.00;;;;;;;13.00;76.29;92614.44;515857;28;852;-68
2023/11/03 00:14:20;;;;;;;10.60;7.68;;;;;;;12.99;76.23;92615.75;515688;28;832;-70
2023/11/03 00:14:36;;;;;;;10.07;7.60;;;;;;;13.01;76.22;92617.94;515809;28;1048;-70
2023/11/03 00:14:51;;;;;;;10.77;7.75;;;;;;;13.01;76.16;92615.91;515598;28;888;-70
2023/11/03 00:15:09;;;;;;;11.97;8.33;;;;;;;13.01;76.09;92618.69;515854;28;821;-69
2023/11/03 00:15:25;;;;;;;11.90;7.90;;;;;;;13.01;76.19;92615.91;515533;28;979;-69
2023/11/03 00:15:41;;;;;;;14.13;8.10;;;;;;;13.04;76.27;92620.25;515542;28;924;-70
2023/11/03 00:15:57;;;;;;;13.20;8.27;;;;;;;13.05;76.02;92615.47;515680;28;778;-70
2023/11/03 00:16:13;;;;;;;12.50;8.57;;;;;;;13.06;76.08;92623.19;515866;28;806;-70
2023/11/03 00:16:28;;;;;;;12.82;8.27;;;;;;;13.07;75.94;92627.44;515729;28;881;-69
2023/11/03 00:16:45;;;;;;;12.50;8.40;;;;;;;13.06;76.00;92614.88;513333;28;1175;-69
2023/11/03 00:17:01;;;;;;;10.85;8.45;;;;;;;13.06;76.04;92623.19;513410;28;817;-68
2023/11/03 00:17:16;;;;;;;10.33;7.90;;;;;;;13.07;75.88;92627.44;513576;28;837;-70
2023/11/03 00:17:32;;;;;;;11.57;8.07;;;;;;;13.08;75.95;92626.13;513493;28;860;-69
2023/11/03 00:17:49;;;;;;;12.90;8.47;;;;;;;13.07;75.94;92623.94;513370;28;887;-69
2023/11/03 00:18:05;;;;;;;13.18;8.40;;;;;;;13.07;76.06;92624.69;513361;28;909;-71
2023/11/03 00:18:20;;;;;;;14.77;8.68;;;;;;;13.07;76.01;92630.22;513288;28;790;-70
2023/11/03 00:18:35;;;;;;;14.93;8.43;;;;;;;13.08;75.88;92622.63;514419;28;766;-70
2023/11/03 00:18:51;;;;;;;11.32;7.70;;;;;;;13.09;75.86;92626.84;515496;28;1034;-70
2023/11/03 00:19:07;;;;;;;9.93;7.60;;;;;;;13.08;75.85;92625.41;515578;28;797;-69
2023/11/03 00:19:25;;;;;;;10.38;8.02;;;;;;;13.05;76.12;92634.88;515742;28;833;-69
2023/11/03 00:19:41;;;;;;;10.00;7.88;;;;;;;13.03;76.07;92627.13;515788;28;853;-69
2023/11/03 00:19:56;;;;;;;11.50;8.15;;;;;;;13.02;76.14;92622.16;515504;28;1039;-69
2023/11/03 00:20:14;;;;;;;11.90;7.90;;;;;;;12.96;76.44;92628.00;515680;28;888;-68
2023/11/03 00:20:29;;;;;;;11.27;7.50;;;;;;;12.97;76.29;92621.16;514779;28;1691;-69
2023/11/03 00:20:45;;;;;;;13.45;7.65;;;;;;;12.98;76.21;92625.38;515754;28;785;-69
2023/11/03 00:21:00;;;;;;;13.67;7.83;;;;;;;12.98;76.32;92628.16;515566;28;753;-70
2023/11/03 00:21:16;;;;;;;11.38;7.95;;;;;;;12.99;76.26;92624.06;515548;28;864;-69
2023/11/03 00:21:34;;;;;;;11.57;8.73;;;;;;;12.99;76.36;92632.38;515697;28;833;-69
2023/11/03 00:21:50;;;;;;;14.63;9.35;;;;;;;13.00;76.22;92633.84;515688;28;872;-69
2023/11/03 00:22:05;;;;;;;14.70;9.07;;;;;;;13.01;76.38;92637.34;514774;28;1108;-68
2023/11/03 00:22:23;;;;;;;12.88;9.10;;;;;;;13.01;76.46;92635.31;515580;28;888;-70
2023/11/03 00:22:39;;;;;;;12.80;8.95;;;;;;;13.03;76.48;92643.75;515642;28;854;-70
2023/11/03 00:22:54;;;;;;;12.15;8.98;;;;;;;13.03;76.39;92635.44;515519;28;793;-70
2023/11/03 00:23:10;;;;;;;11.97;9.37;;;;;;;13.05;76.46;92632.84;515808;28;966;-70
2023/11/03 00:23:25;;;;;;;12.98;9.32;;;;;;;13.06;76.35;92630.81;515788;28;804;-71
2023/11/03 00:23:42;;;;;;;13.57;9.38;;;;;;;13.06;76.43;92634.28;515517;28;774;-70
2023/11/03 00:23:58;;;;;;;14.07;9.32;;;;;;;13.06;76.46;92630.81;515866;28;859;-70
2023/11/03 00:24:14;;;;;;;13.82;9.35;;;;;;;13.04;76.54;92628.56;515587;28;777;-70
2023/11/03 00:24:29;;;;;;;13.35;9.18;;;;;;;13.05;76.61;92632.84;515722;28;828;-70
2023/11/03 00:24:45;;;;;;;12.63;9.10;;;;;;;13.06;76.61;92628.75;515577;28;833;-70
2023/11/03 00:25:01;;;;;;;12.30;8.50;;;;;;;13.06;76.58;92630.81;515729;28;798;-70
2023/11/03 00:25:16;;;;;;;12.93;8.83;;;;;;;13.00;76.76;92619.97;515716;28;762;-70
2023/11/03 00:25:32;;;;;;;13.82;9.32;;;;;;;13.06;76.67;92628.03;515518;28;836;-70
2023/11/03 00:25:47;;;;;;;14.55;9.30;;;;;;;13.06;76.65;92622.50;515939;28;856;-70
2023/11/03 00:26:03;;;;;;;13.97;8.97;;;;;;;13.00;76.71;92619.97;515652;28;852;-70
2023/11/03 00:26:18;;;;;;;13.82;8.90;;;;;;;12.97;76.79;92629.47;515725;28;1124;-69
2023/11/03 00:26:34;;;;;;;15.07;8.40;;;;;;;12.98;76.74;92622.59;515449;28;2454;-69
2023/11/03 00:26:53;;;;;;;13.63;7.85;;;;;;;12.97;76.75;92617.66;515546;28;760;-69
2023/11/03 00:27:08;;;;;;;11.73;8.02;;;;;;;12.99;76.75;92610.22;515271;28;994;-70
2023/11/03 00:27:25;;;;;;;10.60;7.70;;;;;;;13.00;76.55;92608.91;515900;28;781;-70
2023/11/03 00:27:42;;;;;;;10.90;8.07;;;;;;;13.03;76.63;92602.19;515592;28;927;-70
2023/11/03 00:27:58;;;;;;;13.15;8.40;;;;;;;13.04;76.54;92602.94;515582;28;870;-70
2023/11/03 00:28:15;;;;;;;14.48;8.65;;;;;;;13.05;76.64;92605.13;515625;28;824;-70
2023/11/03 00:28:30;;;;;;;11.93;8.38;;;;;;;13.03;76.59;92604.22;515639;28;828;-69
2023/11/03 00:28:48;;;;;;;10.90;7.63;;;;;;;13.01;76.54;92602.06;515630;28;841;-69
2023/11/03 00:29:05;;;;;;;15.23;8.32;;;;;;;12.95;76.61;92598.81;515643;28;817;-69
2023/11/03 00:29:22;;;;;;;13.32;8.40;;;;;;;12.95;76.80;92602.34;515728;28;873;-70
2023/11/03 00:29:38;;;;;;;10.60;8.07;;;;;;;12.98;76.82;92605.97;515669;28;1016;-70
2023/11/03 00:29:54;;;;;;;13.10;8.33;;;;;;;12.99;76.87;92596.38;515674;28;884;-70
2023/11/03 00:30:11;;;;;;;13.43;8.32;;;;;;;13.03;76.80;92598.69;515840;28;858;-70
2023/11/03 00:30:26;;;;;;;11.63;8.18;;;;;;;13.04;76.62;92597.38;515233;28;1114;-69
2023/11/03 00:30:42;;;;;;;12.97;8.33;;;;;;;13.03;76.77;92596.66;515494;28;837;-70
2023/11/03 00:30:57;;;;;;;12.40;8.30;;;;;;;13.04;76.69;92598.09;515600;28;1007;-70
2023/11/03 00:31:12;;;;;;;10.73;8.20;;;;;;;13.05;76.76;92593.31;515776;28;908;-70
2023/11/03 00:31:28;;;;;;;11.43;8.13;;;;;;;13.00;76.56;92586.72;515665;28;960;-68
2023/11/03 00:31:47;;;;;;;10.98;8.18;;;;;;;13.03;76.71;92593.16;515646;28;824;-70
2023/11/03 00:32:03;;;;;;;10.77;8.43;;;;;;;13.03;76.60;92585.56;515500;28;966;-70
2023/11/03 00:32:19;;;;;;;12.38;8.80;;;;;;;13.05;76.79;92593.31;515771;28;769;-70
2023/11/03 00:32:35;;;;;;;14.33;9.00;;;;;;;13.05;76.71;92594.06;515655;28;793;-70
2023/11/03 00:32:50;;;;;;;13.15;9.15;;;;;;;13.07;76.82;92585.16;515542;28;807;-70
2023/11/03 00:33:05;;;;;;;12.50;9.20;;;;;;;13.01;76.64;92585.44;515422;28;1210;-69
2023/11/03 00:33:21;;;;;;;13.10;9.38;;;;;;;13.02;77.02;92589.63;515926;28;829;-69
2023/11/03 00:33:36;;;;;;;12.63;9.10;;;;;;;12.95;77.00;92579.44;515466;28;1931;-68
2023/11/03 00:33:52;;;;;;;14.80;9.00;;;;;;;12.92;77.02;92580.63;515565;28;817;-68
2023/11/03 00:34:07;;;;;;;14.98;8.82;;;;;;;12.91;77.27;92585.44;515308;28;785;-69
2023/11/03 00:34:22;;;;;;;12.93;8.47;;;;;;;12.91;77.21;92579.88;515236;28;1083;-69
2023/11/03 00:34:38;;;;;;;12.40;8.13;;;;;;;12.95;77.49;92596.06;515267;28;821;-70
2023/11/03 00:34:53;;;;;;;13.10;8.60;;;;;;;12.95;77.36;92594.03;515226;28;902;-69
2023/11/03 00:35:09;;;;;;;12.60;9.70;;;;;;;12.98;77.30;92597.66;515565;28;766;-69
2023/11/03 00:35:25;;;;;;;13.48;9.38;;;;;;;12.97;77.30;92595.50;515740;28;921;-69
2023/11/03 00:35:41;;;;;;;14.00;8.98;;;;;;;12.97;77.38;92604.53;515549;28;782;-70
2023/11/03 00:35:58;;;;;;;15.30;9.52;;;;;;;12.94;77.10;92606.44;515615;28;839;-70
2023/11/03 00:36:14;;;;;;;13.70;9.20;;;;;;;12.96;77.26;92605.84;515546;28;899;-68
2023/11/03 00:36:30;;;;;;;13.82;8.93;;;;;;;12.98;77.35;92597.66;515845;28;828;-68
2023/11/03 00:36:49;;;;;;;16.02;8.75;;;;;;;12.86;77.35;92582.97;515428;28;883;-68
2023/11/03 00:37:04;;;;;;;15.30;9.35;;;;;;;13.00;77.30;92608.16;515593;28;923;-68
2023/11/03 00:37:19;;;;;;;12.47;9.53;;;;;;;13.00;77.39;92603.34;515607;28;777;-69
2023/11/03 00:37:36;;;;;;;11.18;9.27;;;;;;;13.01;77.38;92599.28;515644;28;774;-69
2023/11/03 00:37:53;;;;;;;13.98;9.13;;;;;;;13.01;77.34;92609.63;515845;28;852;-68
2023/11/03 00:38:08;;;;;;;16.50;9.30;;;;;;;13.03;77.34;92609.78;515611;28;856;-69
2023/11/03 00:38:24;;;;;;;15.63;9.27;;;;;;;13.01;77.60;92601.31;515428;28;881;-69
2023/11/03 00:38:42;;;;;;;14.00;9.10;;;;;;;13.01;77.40;92601.31;515607;28;825;-71
2023/11/03 00:38:58;;;;;;;15.85;9.35;;;;;;;13.03;77.64;92604.22;515665;28;918;-70
2023/11/03 00:39:14;;;;;;;15.65;9.38;;;;;;;13.03;77.67;92604.22;515597;28;813;-70
2023/11/03 00:39:30;;;;;;;13.07;9.05;;;;;;;13.02;77.55;92597.94;515560;28;860;-70
2023/11/03 00:39:45;;;;;;;14.52;9.95;;;;;;;13.04;77.45;92603.63;515801;28;853;-69
2023/11/03 00:40:03;;;;;;;16.20;10.10;;;;;;;13.06;77.33;92600.31;515896;28;773;-69
2023/11/03 00:40:18;;;;;;;14.35;9.15;;;;;;;13.06;77.48;92603.81;515743;28;801;-70
2023/11/03 00:40:34;;;;;;;14.03;9.30;;;;;;;13.07;77.39;92591.41;515619;28;786;-70
2023/11/03 00:40:49;;;;;;;11.90;8.95;;;;;;;13.08;77.38;92598.41;515589;28;892;-70
2023/11/03 00:41:05;;;;;;;11.60;8.73;;;;;;;13.09;77.29;92599.88;515743;28;924;-70
2023/11/03 00:41:21;;;;;;;14.20;8.90;;;;;;;13.09;77.49;92599.13;515864;28;792;-70
2023/11/03 00:41:36;;;;;;;15.37;8.83;;;;;;;13.07;77.36;92588.66;515541;28;782;-69
2023/11/03 00:41:52;;;;;;;12.32;8.27;;;;;;;13.07;77.41;92596.97;515648;28;766;-67
2023/11/03 00:42:07;;;;;;;13.88;7.97;;;;;;;13.07;77.42;92599.00;515685;28;801;-69
2023/11/03 00:42:23;;;;;;;18.13;8.50;;;;;;;13.04;77.61;92600.16;515675;28;754;-70
2023/11/03 00:42:39;;;;;;;15.03;9.17;;;;;;;13.04;77.69;92598.09;515644;28;1101;-71
2023/11/03 00:42:59;;;;;;;14.10;9.45;;;;;;;12.99;77.81;92595.63;515534;28;852;-68
2023/11/03 00:43:14;;;;;;;13.15;8.43;;;;;;;12.90;78.12;92606.16;515531;28;946;-70
2023/11/03 00:43:30;;;;;;;13.95;9.25;;;;;;;12.92;78.14;92597.25;515849;28;928;-70
2023/11/03 00:43:45;;;;;;;12.90;8.80;;;;;;;12.92;78.24;92597.97;515525;28;796;-69
2023/11/03 00:44:01;;;;;;;12.13;8.18;;;;;;;12.90;78.22;92605.41;515709;28;1027;-69
2023/11/03 00:44:17;;;;;;;13.93;8.73;;;;;;;12.92;78.33;92611.84;515483;28;903;-69
2023/11/03 00:44:34;;;;;;;13.63;8.57;;;;;;;12.94;78.30;92609.19;515785;28;841;-69
2023/11/03 00:44:49;;;;;;;13.02;8.68;;;;;;;12.98;78.20;92610.78;515445;28;1163;-70
2023/11/03 00:45:05;;;;;;;14.23;9.15;;;;;;;13.00;78.31;92608.16;515640;28;856;-70
2023/11/03 00:45:21;;;;;;;14.05;8.85;;;;;;;13.02;78.00;92617.34;515624;28;1096;-69
2023/11/03 00:45:36;;;;;;;13.60;8.63;;;;;;;13.01;78.06;92613.13;515702;28;948;-70
2023/11/03 00:45:51;;;;;;;13.52;9.05;;;;;;;13.01;78.02;92615.91;513440;28;2395;-70
2023/11/03 00:46:08;;;;;;;11.90;8.80;;;;;;;13.00;78.16;92613.69;513522;28;778;-69
2023/11/03 00:46:23;;;;;;;10.55;8.32;;;;;;;13.01;77.96;92610.38;513557;28;927;-69
2023/11/03 00:46:39;;;;;;;12.93;8.53;;;;;;;13.03;78.09;92616.06;513660;28;904;-70
2023/11/03 00:46:54;;;;;;;12.63;8.50;;;;;;;13.03;78.11;92618.81;513240;28;1293;-69
2023/11/03 00:47:10;;;;;;;10.48;8.35;;;;;;;13.03;78.12;92607.75;513350;28;825;-70
2023/11/03 00:47:25;;;;;;;11.70;8.33;;;;;;;13.06;77.98;92614.19;513389;28;970;-69
2023/11/03 00:47:41;;;;;;;13.15;8.55;;;;;;;13.04;78.10;92614.72;514093;28;869;-69
2023/11/03 00:47:59;;;;;;;13.60;8.57;;;;;;;13.03;78.00;92618.81;515694;28;901;-69
2023/11/03 00:48:15;;;;;;;11.43;8.23;;;;;;;13.02;77.84;92625.66;515585;28;929;-69
2023/11/03 00:48:30;;;;;;;12.77;8.45;;;;;;;13.02;77.87;92620.13;515599;28;805;-69
2023/11/03 00:48:46;;;;;;;13.50;8.57;;;;;;;13.03;77.95;92618.81;515622;28;818;-70
2023/11/03 00:49:02;;;;;;;12.48;8.50;;;;;;;13.05;77.89;92618.25;515666;28;800;-70
2023/11/03 00:49:20;;;;;;;12.98;8.45;;;;;;;13.05;77.93;92624.53;515600;28;872;-70
2023/11/03 00:49:39;;;;;;;13.90;8.55;;;;;;;13.04;78.07;92625.81;515558;28;871;-70
2023/11/03 00:49:55;;;;;;;12.65;8.40;;;;;;;13.04;77.96;92630.63;515533;28;856;-70
2023/11/03 00:50:12;;;;;;;12.07;8.90;;;;;;;13.03;77.93;92632.69;515741;28;786;-70
2023/11/03 00:50:30;;;;;;;13.60;9.45;;;;;;;13.06;78.09;92636.34;515806;28;996;-70
2023/11/03 00:50:45;;;;;;;14.38;9.43;;;;;;;13.07;78.00;92633.00;515779;28;877;-69
2023/11/03 00:51:03;;;;;;;13.07;8.93;;;;;;;13.06;77.88;92628.03;515682;28;758;-69
2023/11/03 00:51:18;;;;;;;11.40;8.40;;;;;;;13.02;78.18;92636.75;515514;28;857;-68
2023/11/03 00:51:34;;;;;;;11.50;8.00;;;;;;;13.02;78.19;92633.97;515604;28;746;-70
2023/11/03 00:51:50;;;;;;;13.27;8.82;;;;;;;12.90;78.46;92616.50;515895;28;833;-68
2023/11/03 00:52:08;;;;;;;14.25;8.95;;;;;;;12.99;78.47;92634.44;515706;28;821;-69
2023/11/03 00:52:25;;;;;;;14.80;9.23;;;;;;;13.01;78.62;92635.31;515527;28;919;-69
2023/11/03 00:52:40;;;;;;;14.48;9.40;;;;;;;13.01;78.64;92627.00;515588;28;904;-70
2023/11/03 00:52:56;;;;;;;14.83;9.43;;;;;;;13.00;78.60;92624.78;515663;28;837;-70
2023/11/03 00:53:11;;;;;;;13.88;9.52;;;;;;;13.01;78.75;92626.25;515419;28;964;-68
2023/11/03 00:53:27;;;;;;;13.40;9.07;;;;;;;13.01;78.69;92629.75;515535;28;801;-69
2023/11/03 00:53:42;;;;;;;16.07;8.80;;;;;;;13.02;78.58;92636.00;515479;28;1923;-70
2023/11/03 00:53:58;;;;;;;16.30;9.35;;;;;;;13.02;78.78;92627.69;515916;28;834;-69
2023/11/03 00:54:14;;;;;;;13.85;9.32;;;;;;;13.02;78.78;92625.66;515460;28;1003;-70
2023/11/03 00:54:30;;;;;;;14.25;9.35;;;;;;;13.03;78.70;92623.63;515615;28;936;-69
2023/11/03 00:54:45;;;;;;;16.10;9.90;;;;;;;13.02;78.85;92622.88;515590;28;773;-68
2023/11/03 00:55:01;;;;;;;15.80;10.45;;;;;;;13.02;78.70;92617.34;515841;28;856;-68
2023/11/03 00:55:17;;;;;;;17.33;10.13;;;;;;;13.03;78.78;92618.09;515485;28;872;-68
2023/11/03 00:55:32;;;;;;;18.33;9.97;;;;;;;13.03;78.88;92618.09;515309;28;833;-69
2023/11/03 00:55:47;;;;;;;18.60;10.20;;;;;;;13.01;78.95;92615.91;515556;28;876;-69
2023/11/03 00:56:06;;;;;;;18.10;9.90;;;;;;;13.02;78.90;92622.16;515844;28;821;-70
2023/11/03 00:56:21;;;;;;;16.48;10.05;;;;;;;13.03;78.91;92629.91;515585;28;839;-70
2023/11/03 00:56:36;;;;;;;14.47;9.67;;;;;;;13.04;78.91;92625.09;516939;28;1127;-70
2023/11/03 00:56:52;;;;;;;13.35;9.55;;;;;;;13.06;78.94;92622.50;517527;28;765;-70
2023/11/03 00:57:08;;;;;;;17.20;9.73;;;;;;;13.06;78.98;92628.03;517760;28;742;-70
2023/11/03 00:57:24;;;;;;;18.23;10.43;;;;;;;13.06;78.90;92628.75;517438;28;860;-70
2023/11/03 00:57:39;;;;;;;17.37;10.77;;;;;;;13.07;78.82;92633.00;517522;28;773;-70
2023/11/03 00:57:54;;;;;;;18.35;10.18;;;;;;;13.06;78.77;92623.19;517548;28;1008;-70
2023/11/03 00:58:10;;;;;;;17.43;10.37;;;;;;;13.07;78.55;92632.25;517689;28;1019;-70
2023/11/03 00:58:25;;;;;;;15.90;10.60;;;;;;;13.06;78.77;92623.19;517479;28;817;-71
2023/11/03 00:58:41;;;;;;;13.82;9.70;;;;;;;13.06;78.71;92628.75;517470;28;817;-70
2023/11/03 00:58:56;;;;;;;13.67;9.50;;;;;;;13.07;78.81;92630.22;517338;28;873;-70
2023/11/03 00:59:12;;;;;;;16.10;10.40;;;;;;;13.08;78.91;92628.19;517684;28;797;-69
2023/11/03 00:59:28;;;;;;;18.33;10.97;;;;;;;13.06;78.84;92628.75;517370;28;770;-69
2023/11/03 00:59:44;;;;;;;18.30;11.32;;;;;;;13.05;78.72;92630.06;517341;28;856;-68
2023/11/03 01:00:00;;;;;;;14.93;10.30;;;;;;;12.60;78.67;92551.34;517651;28;811;-70
2023/11/03 01:00:17;;;;;;;16.52;10.15;;;;;;;13.05;78.85;92624.53;517771;28;903;-70
2023/11/03 01:00:36;;;;;;;15.38;10.70;;;;;;;13.06;79.02;92623.19;517622;28;887;-70
2023/11/03 01:00:53;;;;;;;15.57;10.38;;;;;;;13.07;78.84;92627.44;517448;28;863;-70
2023/11/03 01:01:13;;;;;;;16.13;10.15;;;;;;;13.06;78.86;92623.19;517520;28;898;-70
2023/11/03 01:01:29;;;;;;;16.02;10.30;;;;;;;13.08;79.03;92628.88;517464;28;843;-70
2023/11/03 01:01:45;;;;;;;16.58;10.32;;;;;;;13.08;78.75;92633.72;517472;28;934;-70
2023/11/03 01:02:04;;;;;;;15.32;10.75;;;;;;;13.07;78.90;92623.94;517785;28;809;-70
2023/11/03 01:02:19;;;;;;;17.20;11.27;;;;;;;13.09;78.78;92626.84;517613;28;832;-71
2023/11/03 01:02:34;;;;;;;17.53;10.90;;;;;;;13.10;78.97;92631.84;517530;28;792;-70
2023/11/03 01:02:50;;;;;;;16.90;11.25;;;;;;;13.10;78.88;92629.06;517598;28;923;-70
2023/11/03 01:03:05;;;;;;;16.57;11.23;;;;;;;13.12;78.85;92631.25;517613;28;1206;-70
2023/11/03 01:03:24;;;;;;;13.97;10.53;;;;;;;13.13;78.92;92632.69;517610;28;837;-70
2023/11/03 01:03:39;;;;;;;14.32;10.73;;;;;;;13.14;78.80;92628.59;517501;28;869;-69
2023/11/03 01:03:55;;;;;;;16.20;10.53;;;;;;;13.13;78.69;92624.38;517530;28;867;-70
2023/11/03 01:04:11;;;;;;;16.15;9.85;;;;;;;13.10;78.64;92631.84;517690;28;857;-70
2023/11/03 01:04:26;;;;;;;17.00;10.27;;;;;;;13.11;78.59;92624.22;517778;28;786;-71
2023/11/03 01:04:42;;;;;;;15.60;10.77;;;;;;;13.12;78.65;92625.69;516162;28;1347;-70
2023/11/03 01:04:57;;;;;;;14.27;11.20;;;;;;;13.12;78.67;92631.25;515605;28;769;-70
2023/11/03 01:05:14;;;;;;;16.73;10.90;;;;;;;13.12;78.67;92629.19;515734;28;844;-70
2023/11/03 01:05:29;;;;;;;18.60;10.68;;;;;;;13.13;78.62;92616.78;515697;28;797;-70
2023/11/03 01:05:45;;;;;;;20.27;10.90;;;;;;;13.15;78.62;92621.72;515405;28;883;-70
2023/11/03 01:06:01;;;;;;;20.73;11.07;;;;;;;13.15;78.59;92625.25;515633;28;782;-70
2023/11/03 01:06:17;;;;;;;20.33;10.73;;;;;;;13.17;78.65;92621.88;515606;28;879;-70
2023/11/03 01:06:33;;;;;;;17.33;10.20;;;;;;;13.17;78.60;92627.41;515691;28;985;-70
2023/11/03 01:06:49;;;;;;;15.07;10.30;;;;;;;13.17;78.65;92632.97;515570;28;856;-70
2023/11/03 01:07:04;;;;;;;15.63;9.97;;;;;;;13.17;78.37;92628.16;515546;28;1577;-70
2023/11/03 01:07:23;;;;;;;14.30;9.52;;;;;;;13.15;78.32;92633.56;515626;28;769;-68
2023/11/03 01:07:38;;;;;;;18.88;10.05;;;;;;;13.16;78.48;92631.53;515626;28;810;-69
2023/11/03 01:07:57;;;;;;;20.15;10.18;;;;;;;13.14;78.32;92628.59;514985;28;953;-70
2023/11/03 01:08:12;;;;;;;15.48;10.45;;;;;;;13.11;78.45;92633.28;515576;28;879;-70
2023/11/03 01:08:28;;;;;;;16.90;10.40;;;;;;;13.10;78.56;92631.09;515586;28;908;-69
2023/11/03 01:08:43;;;;;;;18.63;11.10;;;;;;;13.10;78.52;92629.06;515697;28;746;-69
2023/11/03 01:08:58;;;;;;;19.20;11.07;;;;;;;13.09;78.63;92632.41;515704;28;983;-70
2023/11/03 01:09:14;;;;;;;17.60;10.17;;;;;;;13.10;78.76;92631.09;515613;28;839;-69
2023/11/03 01:09:29;;;;;;;17.33;10.47;;;;;;;13.06;78.78;92619.72;515384;28;776;-70
2023/11/03 01:09:45;;;;;;;19.20;10.90;;;;;;;13.12;78.67;92631.25;515803;28;769;-70
2023/11/03 01:10:03;;;;;;;17.47;10.90;;;;;;;13.12;78.66;92625.69;515410;28;766;-70
2023/11/03 01:10:18;;;;;;;15.40;10.85;;;;;;;13.11;78.81;92635.31;515507;28;861;-69
2023/11/03 01:10:34;;;;;;;15.52;10.38;;;;;;;13.12;78.62;92626.44;515615;28;840;-69
2023/11/03 01:10:49;;;;;;;16.70;10.17;;;;;;;13.14;78.85;92628.59;515595;28;864;-69
2023/11/03 01:11:09;;;;;;;17.77;10.07;;;;;;;13.14;78.85;92629.34;515553;28;789;-69
2023/11/03 01:11:26;;;;;;;16.58;9.88;;;;;;;13.13;78.96;92616.78;515558;28;864;-70
2023/11/03 01:11:41;;;;;;;17.33;10.73;;;;;;;13.12;78.87;92615.34;515543;28;844;-70
2023/11/03 01:11:56;;;;;;;18.23;11.23;;;;;;;13.13;78.79;92613.28;515605;28;773;-70
2023/11/03 01:12:12;;;;;;;18.25;10.98;;;;;;;13.08;79.20;92615.03;515668;28;757;-70
2023/11/03 01:12:27;;;;;;;16.67;10.97;;;;;;;13.08;79.25;92614.31;515569;28;880;-71
2023/11/03 01:12:46;;;;;;;16.77;11.33;;;;;;;13.10;79.12;92623.50;515427;28;785;-70
2023/11/03 01:13:01;;;;;;;17.35;10.57;;;;;;;13.10;79.24;92628.31;515568;28;801;-68
2023/11/03 01:13:17;;;;;;;17.10;9.73;;;;;;;13.10;79.39;92625.56;515633;28;848;-69
2023/11/03 01:13:34;;;;;;;17.50;9.97;;;;;;;13.11;79.29;92618.69;515631;28;836;-70
2023/11/03 01:13:50;;;;;;;15.13;9.73;;;;;;;13.11;79.31;92633.28;515473;28;1934;-70
2023/11/03 01:14:05;;;;;;;16.02;10.10;;;;;;;13.12;79.35;92628.47;515478;28;773;-69
2023/11/03 01:14:22;;;;;;;17.97;10.97;;;;;;;13.10;79.21;92631.09;515444;28;896;-70
2023/11/03 01:14:37;;;;;;;19.83;10.90;;;;;;;13.13;79.28;92635.44;515795;28;864;-70
2023/11/03 01:14:55;;;;;;;18.37;10.67;;;;;;;13.13;79.10;92630.66;515465;28;757;-70
2023/11/03 01:15:12;;;;;;;15.57;9.57;;;;;;;13.13;78.75;92633.41;515478;28;827;-70
2023/11/03 01:15:28;;;;;;;15.75;9.93;;;;;;;13.15;79.08;92635.59;515554;28;827;-70
2023/11/03 01:15:43;;;;;;;15.45;10.85;;;;;;;13.15;78.92;92633.56;515600;28;907;-70
2023/11/03 01:15:59;;;;;;;17.17;10.77;;;;;;;13.16;78.93;92637.06;515722;28;833;-70
2023/11/03 01:16:15;;;;;;;16.77;10.30;;;;;;;13.15;78.79;92632.81;515419;28;832;-69
2023/11/03 01:16:33;;;;;;;19.70;10.90;;;;;;;13.15;78.96;92635.59;515541;28;826;-70
2023/11/03 01:16:49;;;;;;;19.00;11.05;;;;;;;13.12;78.65;92626.44;515431;28;866;-70
2023/11/03 01:17:05;;;;;;;15.30;10.80;;;;;;;13.14;78.97;92634.88;515721;28;819;-70